sensor_id;sensor_type;location;lat;lon;timestamp;pressure;altitude;pressure_sealevel;temperature;humidity
17525;BME280;40431;52.198;9.902;2022-07-18T00:01:51;101619.06;;;17.60;62.07
17525;BME280;40431;52.198;9.902;2022-07-18T00:04:19;101620.06;;;17.59;62.51
17525;BME280;40431;52.198;9.902;2022-07-18T00:06:45;101622.81;;;17.59;62.67
17525;BME280;40431;52.198;9.902;2022-07-18T00:09:11;101626.78;;;17.42;61.03
17525;BME280;40431;52.198;9.902;2022-07-18T00:11:38;101626.69;;;17.31;61.45
17525;BME280;40431;52.198;9.902;2022-07-18T00:14:04;101631.19;;;17.19;61.85
17525;BME280;40431;52.198;9.902;2022-07-18T00:16:31;101641.94;;;16.96;62.37
17525;BME280;40431;52.198;9.902;2022-07-18T00:18:57;101635.34;;;16.86;62.93
17525;BME280;40431;52.198;9.902;2022-07-18T00:21:26;101643.63;;;16.84;62.81
17525;BME280;40431;52.198;9.902;2022-07-18T00:23:52;101642.53;;;16.87;64.05
17525;BME280;40431;52.198;9.902;2022-07-18T00:26:19;101640.28;;;16.94;63.82
17525;BME280;40431;52.198;9.902;2022-07-18T00:28:45;101641.50;;;17.02;63.44
17525;BME280;40431;52.198;9.902;2022-07-18T00:31:12;101633.16;;;17.04;63.17
17525;BME280;40431;52.198;9.902;2022-07-18T00:33:38;101631.97;;;16.95;63.57
17525;BME280;40431;52.198;9.902;2022-07-18T00:36:05;101634.59;;;16.97;64.90
17525;BME280;40431;52.198;9.902;2022-07-18T00:38:33;101637.53;;;16.94;63.46
17525;BME280;40431;52.198;9.902;2022-07-18T00:41:00;101639.72;;;16.89;63.99
17525;BME280;40431;52.198;9.902;2022-07-18T00:43:26;101628.84;;;16.87;63.97
17525;BME280;40431;52.198;9.902;2022-07-18T00:45:53;101629.75;;;16.88;65.27
17525;BME280;40431;52.198;9.902;2022-07-18T00:48:19;101620.00;;;16.83;64.52
17525;BME280;40431;52.198;9.902;2022-07-18T00:50:46;101625.91;;;16.77;64.45
17525;BME280;40431;52.198;9.902;2022-07-18T00:53:13;101628.06;;;16.72;65.12
17525;BME280;40431;52.198;9.902;2022-07-18T00:55:43;101644.72;;;16.69;64.68
17525;BME280;40431;52.198;9.902;2022-07-18T00:58:11;101629.25;;;16.55;64.76
17525;BME280;40431;52.198;9.902;2022-07-18T01:00:38;101630.91;;;16.58;65.18
17525;BME280;40431;52.198;9.902;2022-07-18T01:03:22;101628.03;;;16.59;65.46
17525;BME280;40431;52.198;9.902;2022-07-18T01:05:49;101631.47;;;16.63;66.63
17525;BME280;40431;52.198;9.902;2022-07-18T01:08:15;101632.13;;;16.66;66.67
17525;BME280;40431;52.198;9.902;2022-07-18T01:10:43;101629.50;;;16.65;66.25
17525;BME280;40431;52.198;9.902;2022-07-18T01:13:10;101635.72;;;16.67;65.96
17525;BME280;40431;52.198;9.902;2022-07-18T01:15:36;101619.41;;;16.65;66.10
17525;BME280;40431;52.198;9.902;2022-07-18T01:18:03;101621.19;;;16.66;67.12
17525;BME280;40431;52.198;9.902;2022-07-18T01:20:31;101625.22;;;16.61;64.78
17525;BME280;40431;52.198;9.902;2022-07-18T01:22:57;101618.22;;;16.57;65.16
17525;BME280;40431;52.198;9.902;2022-07-18T01:25:25;101612.75;;;16.57;66.73
17525;BME280;40431;52.198;9.902;2022-07-18T01:27:52;101618.41;;;16.53;65.56
17525;BME280;40431;52.198;9.902;2022-07-18T01:30:19;101612.81;;;16.42;64.86
17525;BME280;40431;52.198;9.902;2022-07-18T01:32:45;101609.56;;;16.23;65.46
17525;BME280;40431;52.198;9.902;2022-07-18T01:35:12;101607.13;;;16.05;66.07
17525;BME280;40431;52.198;9.902;2022-07-18T01:37:39;101620.44;;;15.97;66.94
17525;BME280;40431;52.198;9.902;2022-07-18T01:40:07;101612.78;;;16.02;67.70
17525;BME280;40431;52.198;9.902;2022-07-18T01:42:34;101607.31;;;16.02;67.13
17525;BME280;40431;52.198;9.902;2022-07-18T01:45:01;101608.88;;;16.06;66.93
17525;BME280;40431;52.198;9.902;2022-07-18T01:47:27;101610.41;;;16.10;67.10
17525;BME280;40431;52.198;9.902;2022-07-18T01:49:53;101615.22;;;16.07;67.11
17525;BME280;40431;52.198;9.902;2022-07-18T01:52:20;101604.38;;;16.05;66.85
17525;BME280;40431;52.198;9.902;2022-07-18T01:54:47;101611.78;;;16.03;66.97
17525;BME280;40431;52.198;9.902;2022-07-18T01:57:14;101600.09;;;16.01;67.90
17525;BME280;40431;52.198;9.902;2022-07-18T01:59:40;101612.59;;;16.05;68.46
17525;BME280;40431;52.198;9.902;2022-07-18T02:02:07;101607.31;;;16.02;67.69
17525;BME280;40431;52.198;9.902;2022-07-18T02:04:33;101609.16;;;16.01;68.54
17525;BME280;40431;52.198;9.902;2022-07-18T02:07:17;101595.03;;;15.95;67.12
17525;BME280;40431;52.198;9.902;2022-07-18T02:09:44;101591.50;;;15.93;67.50
17525;BME280;40431;52.198;9.902;2022-07-18T02:12:11;101589.97;;;15.89;67.92
17525;BME280;40431;52.198;9.902;2022-07-18T02:14:38;101597.19;;;15.90;67.93
17525;BME280;40431;52.198;9.902;2022-07-18T02:17:04;101595.25;;;15.92;68.01
17525;BME280;40431;52.198;9.902;2022-07-18T02:19:31;101592.41;;;15.93;68.02
17525;BME280;40431;52.198;9.902;2022-07-18T02:21:57;101590.84;;;15.89;67.68
17525;BME280;40431;52.198;9.902;2022-07-18T02:24:24;101586.94;;;15.93;67.19
17525;BME280;40431;52.198;9.902;2022-07-18T02:26:50;101591.63;;;15.91;67.20
17525;BME280;40431;52.198;9.902;2022-07-18T02:29:18;101578.47;;;15.83;66.90
17525;BME280;40431;52.198;9.902;2022-07-18T02:31:44;101585.28;;;15.76;66.99
17525;BME280;40431;52.198;9.902;2022-07-18T02:34:10;101584.81;;;15.69;67.35
17525;BME280;40431;52.198;9.902;2022-07-18T02:36:37;101594.44;;;15.62;68.11
17525;BME280;40431;52.198;9.902;2022-07-18T02:39:04;101575.41;;;15.46;68.00
17525;BME280;40431;52.198;9.902;2022-07-18T02:41:30;101579.72;;;15.36;68.23
17525;BME280;40431;52.198;9.902;2022-07-18T02:43:56;101574.16;;;15.38;68.68
17525;BME280;40431;52.198;9.902;2022-07-18T02:46:25;101580.09;;;15.44;70.06
17525;BME280;40431;52.198;9.902;2022-07-18T02:48:51;101588.19;;;15.46;69.05
17525;BME280;40431;52.198;9.902;2022-07-18T02:51:17;101583.78;;;15.43;68.26
17525;BME280;40431;52.198;9.902;2022-07-18T02:53:44;101577.84;;;15.36;68.49
17525;BME280;40431;52.198;9.902;2022-07-18T02:56:10;101571.22;;;15.26;68.93
17525;BME280;40431;52.198;9.902;2022-07-18T02:58:37;101575.25;;;15.20;69.17
17525;BME280;40431;52.198;9.902;2022-07-18T03:01:03;101574.28;;;15.22;70.18
17525;BME280;40431;52.198;9.902;2022-07-18T03:03:31;101573.31;;;15.23;69.92
17525;BME280;40431;52.198;9.902;2022-07-18T03:05:57;101573.88;;;15.28;70.35
17525;BME280;40431;52.198;9.902;2022-07-18T03:08:24;101565.47;;;15.31;70.29
17525;BME280;40431;52.198;9.902;2022-07-18T03:10:50;101568.59;;;15.39;70.84
17525;BME280;40431;52.198;9.902;2022-07-18T03:13:16;101563.22;;;15.38;69.92
17525;BME280;40431;52.198;9.902;2022-07-18T03:15:43;101560.50;;;15.38;70.53
17525;BME280;40431;52.198;9.902;2022-07-18T03:18:09;101560.59;;;15.36;69.62
17525;BME280;40431;52.198;9.902;2022-07-18T03:20:37;101550.53;;;15.22;69.58
17525;BME280;40431;52.198;9.902;2022-07-18T03:23:04;101554.88;;;15.12;70.02
17525;BME280;40431;52.198;9.902;2022-07-18T03:25:31;101558.84;;;15.06;70.25
17525;BME280;40431;52.198;9.902;2022-07-18T03:27:58;101559.66;;;14.94;70.63
17525;BME280;40431;52.198;9.902;2022-07-18T03:30:25;101564.22;;;14.79;71.04
17525;BME280;40431;52.198;9.902;2022-07-18T03:32:51;101566.47;;;14.72;71.88
17525;BME280;40431;52.198;9.902;2022-07-18T03:35:17;101563.16;;;14.67;71.84
17525;BME280;40431;52.198;9.902;2022-07-18T03:37:45;101563.16;;;14.67;72.24
17525;BME280;40431;52.198;9.902;2022-07-18T03:40:11;101561.00;;;14.72;72.10
17525;BME280;40431;52.198;9.902;2022-07-18T03:42:38;101564.00;;;14.67;71.83
17525;BME280;40431;52.198;9.902;2022-07-18T03:45:05;101559.00;;;14.60;72.03
17525;BME280;40431;52.198;9.902;2022-07-18T03:47:32;101562.50;;;14.47;72.26
17525;BME280;40431;52.198;9.902;2022-07-18T03:49:58;101571.63;;;14.46;73.00
17525;BME280;40431;52.198;9.902;2022-07-18T03:52:25;101568.84;;;14.48;72.96
17525;BME280;40431;52.198;9.902;2022-07-18T03:54:53;101570.31;;;14.53;72.61
17525;BME280;40431;52.198;9.902;2022-07-18T03:57:20;101566.09;;;14.62;72.64
17525;BME280;40431;52.198;9.902;2022-07-18T03:59:46;101565.25;;;14.62;73.06
17525;BME280;40431;52.198;9.902;2022-07-18T04:02:12;101559.34;;;14.69;72.58
17525;BME280;40431;52.198;9.902;2022-07-18T04:04:39;101562.38;;;14.79;72.77
17525;BME280;40431;52.198;9.902;2022-07-18T04:07:05;101565.09;;;14.94;73.00
17525;BME280;40431;52.198;9.902;2022-07-18T04:09:31;101564.03;;;15.11;73.64
17525;BME280;40431;52.198;9.902;2022-07-18T04:11:59;101558.66;;;15.24;73.49
17525;BME280;40431;52.198;9.902;2022-07-18T04:14:26;101561.47;;;15.36;73.27
17525;BME280;40431;52.198;9.902;2022-07-18T04:16:52;101554.72;;;15.42;70.79
17525;BME280;40431;52.198;9.902;2022-07-18T04:19:19;101556.94;;;15.50;71.12
17525;BME280;40431;52.198;9.902;2022-07-18T04:21:47;101547.09;;;15.47;70.45
17525;BME280;40431;52.198;9.902;2022-07-18T04:24:14;101546.69;;;15.53;70.74
17525;BME280;40431;52.198;9.902;2022-07-18T04:26:40;101557.72;;;15.52;70.13
17525;BME280;40431;52.198;9.902;2022-07-18T04:29:08;101548.63;;;15.51;69.21
17525;BME280;40431;52.198;9.902;2022-07-18T04:31:34;101551.56;;;15.48;70.00
17525;BME280;40431;52.198;9.902;2022-07-18T04:34:00;101545.81;;;15.53;70.47
17525;BME280;40431;52.198;9.902;2022-07-18T04:36:27;101537.00;;;15.62;70.07
17525;BME280;40431;52.198;9.902;2022-07-18T04:38:53;101539.41;;;15.67;69.68
17525;BME280;40431;52.198;9.902;2022-07-18T04:41:20;101525.53;;;15.70;68.98
17525;BME280;40431;52.198;9.902;2022-07-18T04:43:50;101521.53;;;15.76;68.83
17525;BME280;40431;52.198;9.902;2022-07-18T04:46:18;101519.06;;;15.85;68.63
17525;BME280;40431;52.198;9.902;2022-07-18T04:48:47;101518.66;;;15.92;68.09
17525;BME280;40431;52.198;9.902;2022-07-18T04:51:14;101522.84;;;15.97;68.09
17525;BME280;40431;52.198;9.902;2022-07-18T04:53:40;101530.50;;;16.05;68.13
17525;BME280;40431;52.198;9.902;2022-07-18T04:56:07;101532.91;;;16.10;67.95
17525;BME280;40431;52.198;9.902;2022-07-18T04:58:33;101534.69;;;16.11;67.36
17525;BME280;40431;52.198;9.902;2022-07-18T05:00:59;101530.19;;;16.10;67.02
17525;BME280;40431;52.198;9.902;2022-07-18T05:03:27;101530.50;;;16.05;66.46
17525;BME280;40431;52.198;9.902;2022-07-18T05:05:54;101531.09;;;16.10;66.46
17525;BME280;40431;52.198;9.902;2022-07-18T05:08:20;101531.19;;;16.22;66.08
17525;BME280;40431;52.198;9.902;2022-07-18T05:10:46;101529.88;;;16.27;65.70
17525;BME280;40431;52.198;9.902;2022-07-18T05:13:13;101529.25;;;16.36;65.53
17525;BME280;40431;52.198;9.902;2022-07-18T05:15:39;101525.78;;;16.47;64.85
17525;BME280;40431;52.198;9.902;2022-07-18T05:18:06;101529.94;;;16.66;63.95
17525;BME280;40431;52.198;9.902;2022-07-18T05:20:33;101533.22;;;16.84;63.71
17525;BME280;40431;52.198;9.902;2022-07-18T05:23:00;101543.72;;;17.03;64.08
17525;BME280;40431;52.198;9.902;2022-07-18T05:25:26;101538.66;;;17.23;63.00
17525;BME280;40431;52.198;9.902;2022-07-18T05:27:53;101531.53;;;17.33;62.50
17525;BME280;40431;52.198;9.902;2022-07-18T05:30:20;101532.47;;;17.45;62.13
17525;BME280;40431;52.198;9.902;2022-07-18T05:32:48;101533.13;;;17.48;62.83
17525;BME280;40431;52.198;9.902;2022-07-18T05:35:15;101523.88;;;17.49;63.26
17525;BME280;40431;52.198;9.902;2022-07-18T05:37:43;101518.19;;;17.52;63.34
17525;BME280;40431;52.198;9.902;2022-07-18T05:40:12;101524.31;;;17.56;62.11
17525;BME280;40431;52.198;9.902;2022-07-18T05:42:39;101512.53;;;17.67;62.04
17525;BME280;40431;52.198;9.902;2022-07-18T05:45:07;101516.09;;;17.80;62.05
17525;BME280;40431;52.198;9.902;2022-07-18T05:47:34;101514.06;;;17.95;60.63
17525;BME280;40431;52.198;9.902;2022-07-18T05:50:00;101513.69;;;18.00;60.71
17525;BME280;40431;52.198;9.902;2022-07-18T05:52:26;101517.94;;;18.04;60.85
17525;BME280;40431;52.198;9.902;2022-07-18T05:54:54;101520.69;;;18.04;60.32
17525;BME280;40431;52.198;9.902;2022-07-18T05:57:21;101521.72;;;18.03;59.53
17525;BME280;40431;52.198;9.902;2022-07-18T05:59:47;101523.56;;;18.02;59.74
17525;BME280;40431;52.198;9.902;2022-07-18T06:02:13;101521.34;;;18.08;59.71
17525;BME280;40431;52.198;9.902;2022-07-18T06:04:40;101534.34;;;18.06;59.65
17525;BME280;40431;52.198;9.902;2022-07-18T06:07:07;101537.94;;;18.06;60.35
17525;BME280;40431;52.198;9.902;2022-07-18T06:09:33;101528.22;;;18.13;60.02
17525;BME280;40431;52.198;9.902;2022-07-18T06:12:01;101519.91;;;18.26;60.84
17525;BME280;40431;52.198;9.902;2022-07-18T06:14:28;101515.34;;;18.38;58.49
17525;BME280;40431;52.198;9.902;2022-07-18T06:16:54;101510.69;;;18.39;58.46
17525;BME280;40431;52.198;9.902;2022-07-18T06:19:21;101516.56;;;18.45;57.42
17525;BME280;40431;52.198;9.902;2022-07-18T06:21:47;101511.25;;;18.55;57.78
17525;BME280;40431;52.198;9.902;2022-07-18T06:24:14;101508.88;;;18.73;58.50
17525;BME280;40431;52.198;9.902;2022-07-18T06:26:40;101501.81;;;18.93;57.34
17525;BME280;40431;52.198;9.902;2022-07-18T06:29:08;101500.19;;;19.13;56.85
17525;BME280;40431;52.198;9.902;2022-07-18T06:31:35;101504.53;;;19.27;56.09
17525;BME280;40431;52.198;9.902;2022-07-18T06:34:02;101495.75;;;19.45;56.48
17525;BME280;40431;52.198;9.902;2022-07-18T06:36:28;101497.06;;;19.62;56.42
17525;BME280;40431;52.198;9.902;2022-07-18T06:38:55;101495.66;;;19.79;55.63
17525;BME280;40431;52.198;9.902;2022-07-18T06:41:21;101485.63;;;19.89;54.54
17525;BME280;40431;52.198;9.902;2022-07-18T06:43:48;101490.53;;;19.85;54.44
17525;BME280;40431;52.198;9.902;2022-07-18T06:46:15;101488.31;;;20.00;54.40
17525;BME280;40431;52.198;9.902;2022-07-18T06:48:42;101482.53;;;20.03;55.46
17525;BME280;40431;52.198;9.902;2022-07-18T06:51:08;101489.75;;;20.16;54.84
17525;BME280;40431;52.198;9.902;2022-07-18T06:53:34;101479.28;;;20.31;53.62
17525;BME280;40431;52.198;9.902;2022-07-18T06:56:01;101472.94;;;20.40;52.90
17525;BME280;40431;52.198;9.902;2022-07-18T06:58:28;101482.53;;;20.46;52.79
17525;BME280;40431;52.198;9.902;2022-07-18T07:00:56;101491.59;;;20.58;52.03
17525;BME280;40431;52.198;9.902;2022-07-18T07:03:24;101487.03;;;20.68;52.99
17525;BME280;40431;52.198;9.902;2022-07-18T07:05:50;101485.94;;;20.80;52.55
17525;BME280;40431;52.198;9.902;2022-07-18T07:08:16;101481.06;;;20.94;52.22
17525;BME280;40431;52.198;9.902;2022-07-18T07:10:43;101481.28;;;21.12;51.40
17525;BME280;40431;52.198;9.902;2022-07-18T07:13:09;101482.31;;;21.21;50.67
17525;BME280;40431;52.198;9.902;2022-07-18T07:15:36;101475.94;;;21.30;51.93
17525;BME280;40431;52.198;9.902;2022-07-18T07:18:02;101470.78;;;21.46;50.74
17525;BME280;40431;52.198;9.902;2022-07-18T07:20:31;101472.88;;;21.64;50.09
17525;BME280;40431;52.198;9.902;2022-07-18T07:22:57;101462.41;;;21.77;49.71
17525;BME280;40431;52.198;9.902;2022-07-18T07:25:25;101463.56;;;21.94;50.25
17525;BME280;40431;52.198;9.902;2022-07-18T07:27:53;101460.06;;;22.12;49.44
17525;BME280;40431;52.198;9.902;2022-07-18T07:30:19;101459.31;;;22.29;49.37
17525;BME280;40431;52.198;9.902;2022-07-18T07:32:46;101459.88;;;22.43;49.81
17525;BME280;40431;52.198;9.902;2022-07-18T07:35:14;101452.44;;;22.53;49.29
17525;BME280;40431;52.198;9.902;2022-07-18T07:37:44;101447.75;;;22.63;49.81
17525;BME280;40431;52.198;9.902;2022-07-18T07:40:12;101462.69;;;22.80;49.12
17525;BME280;40431;52.198;9.902;2022-07-18T07:42:39;101456.19;;;22.99;49.32
17525;BME280;40431;52.198;9.902;2022-07-18T07:45:06;101456.28;;;23.17;48.65
17525;BME280;40431;52.198;9.902;2022-07-18T07:47:34;101451.25;;;23.31;48.18
17525;BME280;40431;52.198;9.902;2022-07-18T07:50:00;101458.44;;;23.42;47.43
17525;BME280;40431;52.198;9.902;2022-07-18T07:52:27;101446.88;;;23.46;47.58
17525;BME280;40431;52.198;9.902;2022-07-18T07:54:55;101455.16;;;23.56;47.26
17525;BME280;40431;52.198;9.902;2022-07-18T07:57:22;101447.47;;;23.68;46.50
17525;BME280;40431;52.198;9.902;2022-07-18T07:59:48;101457.19;;;23.72;46.59
17525;BME280;40431;52.198;9.902;2022-07-18T08:02:15;101454.09;;;23.75;46.08
17525;BME280;40431;52.198;9.902;2022-07-18T08:04:42;101455.53;;;23.79;45.78
17525;BME280;40431;52.198;9.902;2022-07-18T08:07:08;101458.38;;;23.88;46.52
17525;BME280;40431;52.198;9.902;2022-07-18T08:09:35;101449.84;;;23.99;45.76
17525;BME280;40431;52.198;9.902;2022-07-18T08:12:03;101447.25;;;23.97;46.01
17525;BME280;40431;52.198;9.902;2022-07-18T08:14:29;101453.53;;;24.08;45.41
17525;BME280;40431;52.198;9.902;2022-07-18T08:16:58;101446.19;;;24.16;44.83
17525;BME280;40431;52.198;9.902;2022-07-18T08:19:24;101441.72;;;24.24;44.99
17525;BME280;40431;52.198;9.902;2022-07-18T08:21:50;101437.34;;;24.39;44.86
17525;BME280;40431;52.198;9.902;2022-07-18T08:24:17;101430.84;;;24.57;45.45
17525;BME280;40431;52.198;9.902;2022-07-18T08:26:43;101432.69;;;24.74;44.32
17525;BME280;40431;52.198;9.902;2022-07-18T08:29:11;101434.47;;;24.83;42.06
17525;BME280;40431;52.198;9.902;2022-07-18T08:31:47;101431.06;;;24.98;42.19
17525;BME280;40431;52.198;9.902;2022-07-18T08:34:13;101428.38;;;25.14;40.85
17525;BME280;40431;52.198;9.902;2022-07-18T08:36:40;101430.50;;;25.29;39.58
17525;BME280;40431;52.198;9.902;2022-07-18T08:39:06;101428.41;;;25.31;39.37
17525;BME280;40431;52.198;9.902;2022-07-18T08:41:33;101428.13;;;25.42;40.29
17525;BME280;40431;52.198;9.902;2022-07-18T08:44:00;101433.38;;;25.70;40.37
17525;BME280;40431;52.198;9.902;2022-07-18T08:46:29;101433.22;;;25.80;39.51
17525;BME280;40431;52.198;9.902;2022-07-18T08:48:56;101420.88;;;25.91;39.90
17525;BME280;40431;52.198;9.902;2022-07-18T08:51:22;101418.81;;;26.01;37.55
17525;BME280;40431;52.198;9.902;2022-07-18T08:53:50;101417.25;;;26.15;38.65
17525;BME280;40431;52.198;9.902;2022-07-18T08:56:17;101415.47;;;26.39;38.32
17525;BME280;40431;52.198;9.902;2022-07-18T08:58:43;101413.88;;;26.44;36.98
17525;BME280;40431;52.198;9.902;2022-07-18T09:01:09;101422.22;;;26.53;36.97
17525;BME280;40431;52.198;9.902;2022-07-18T09:03:37;101418.38;;;26.54;36.20
17525;BME280;40431;52.198;9.902;2022-07-18T09:06:05;101416.97;;;26.58;37.28
17525;BME280;40431;52.198;9.902;2022-07-18T09:08:32;101412.44;;;26.65;35.76
17525;BME280;40431;52.198;9.902;2022-07-18T09:11:00;101417.00;;;26.49;35.74
17525;BME280;40431;52.198;9.902;2022-07-18T09:13:35;101415.63;;;26.45;35.88
17525;BME280;40431;52.198;9.902;2022-07-18T09:16:03;101419.81;;;26.41;35.26
17525;BME280;40431;52.198;9.902;2022-07-18T09:18:32;101417.72;;;26.35;35.29
17525;BME280;40431;52.198;9.902;2022-07-18T09:21:02;101416.34;;;26.47;35.57
17525;BME280;40431;52.198;9.902;2022-07-18T09:23:30;101420.28;;;26.61;34.24
17525;BME280;40431;52.198;9.902;2022-07-18T09:25:56;101414.34;;;26.81;35.68
17525;BME280;40431;52.198;9.902;2022-07-18T09:28:25;101404.13;;;27.05;35.08
17525;BME280;40431;52.198;9.902;2022-07-18T09:30:51;101407.34;;;27.25;35.51
17525;BME280;40431;52.198;9.902;2022-07-18T09:33:17;101414.19;;;27.45;35.97
17525;BME280;40431;52.198;9.902;2022-07-18T09:35:47;101412.97;;;27.71;35.42
17525;BME280;40431;52.198;9.902;2022-07-18T09:38:16;101406.09;;;27.82;35.04
17525;BME280;40431;52.198;9.902;2022-07-18T09:40:45;101405.97;;;27.75;33.55
17525;BME280;40431;52.198;9.902;2022-07-18T09:43:13;101405.97;;;27.75;34.48
17525;BME280;40431;52.198;9.902;2022-07-18T09:45:41;101392.56;;;27.71;35.17
17525;BME280;40431;52.198;9.902;2022-07-18T09:48:09;101387.22;;;27.84;35.09
17525;BME280;40431;52.198;9.902;2022-07-18T09:50:37;101379.78;;;27.99;34.43
17525;BME280;40431;52.198;9.902;2022-07-18T09:53:09;101388.78;;;28.10;34.70
17525;BME280;40431;52.198;9.902;2022-07-18T09:55:42;101378.91;;;28.22;33.63
17525;BME280;40431;52.198;9.902;2022-07-18T09:58:09;101389.63;;;28.10;33.67
17525;BME280;40431;52.198;9.902;2022-07-18T10:00:38;101382.63;;;28.14;34.00
17525;BME280;40431;52.198;9.902;2022-07-18T10:03:06;101373.84;;;28.03;33.71
17525;BME280;40431;52.198;9.902;2022-07-18T10:05:34;101372.16;;;28.16;34.91
17525;BME280;40431;52.198;9.902;2022-07-18T10:08:03;101369.97;;;28.27;33.14
17525;BME280;40431;52.198;9.902;2022-07-18T10:10:30;101368.81;;;28.36;34.48
17525;BME280;40431;52.198;9.902;2022-07-18T10:13:00;101364.09;;;28.52;34.14
17525;BME280;40431;52.198;9.902;2022-07-18T10:15:28;101366.13;;;28.73;33.87
17525;BME280;40431;52.198;9.902;2022-07-18T10:17:55;101363.44;;;28.79;32.72
17525;BME280;40431;52.198;9.902;2022-07-18T10:20:27;101360.91;;;28.85;32.09
17525;BME280;40431;52.198;9.902;2022-07-18T10:22:57;101350.28;;;28.73;31.98
17525;BME280;40431;52.198;9.902;2022-07-18T10:25:25;101352.66;;;28.76;33.05
17525;BME280;40431;52.198;9.902;2022-07-18T10:27:53;101364.00;;;28.90;33.04
17525;BME280;40431;52.198;9.902;2022-07-18T10:30:33;101357.38;;;29.12;32.33
17525;BME280;40431;52.198;9.902;2022-07-18T10:33:01;101357.66;;;29.18;31.75
17525;BME280;40431;52.198;9.902;2022-07-18T10:36:00;101356.31;;;29.28;31.58
17525;BME280;40431;52.198;9.902;2022-07-18T10:38:27;101351.13;;;29.10;30.96
17525;BME280;40431;52.198;9.902;2022-07-18T10:41:08;101352.59;;;29.06;30.91
17525;BME280;40431;52.198;9.902;2022-07-18T10:43:38;101349.41;;;29.09;30.92
17525;BME280;40431;52.198;9.902;2022-07-18T10:46:07;101342.91;;;29.24;32.38
17525;BME280;40431;52.198;9.902;2022-07-18T10:48:51;101333.19;;;29.35;31.40
17525;BME280;40431;52.198;9.902;2022-07-18T10:51:19;101339.88;;;29.40;31.84
17525;BME280;40431;52.198;9.902;2022-07-18T10:53:57;101333.38;;;29.55;31.39
17525;BME280;40431;52.198;9.902;2022-07-18T10:59:23;101340.81;;;29.69;31.55
17525;BME280;40431;52.198;9.902;2022-07-18T11:01:53;101348.63;;;29.80;31.21
17525;BME280;40431;52.198;9.902;2022-07-18T11:04:24;101340.91;;;29.82;30.91
17525;BME280;40431;52.198;9.902;2022-07-18T11:06:55;101327.06;;;29.96;30.89
17525;BME280;40431;52.198;9.902;2022-07-18T11:09:32;101337.28;;;30.10;30.68
17525;BME280;40431;52.198;9.902;2022-07-18T11:12:18;101330.59;;;30.11;31.00
17525;BME280;40431;52.198;9.902;2022-07-18T11:15:05;101332.00;;;30.22;30.40
17525;BME280;40431;52.198;9.902;2022-07-18T11:17:59;101324.63;;;30.14;29.54
17525;BME280;40431;52.198;9.902;2022-07-18T11:20:28;101313.66;;;30.13;29.44
17525;BME280;40431;52.198;9.902;2022-07-18T11:22:55;101310.19;;;30.11;30.10
17525;BME280;40431;52.198;9.902;2022-07-18T11:25:25;101302.81;;;30.03;29.97
17525;BME280;40431;52.198;9.902;2022-07-18T11:27:52;101302.06;;;30.23;30.23
17525;BME280;40431;52.198;9.902;2022-07-18T11:30:20;101301.25;;;30.29;29.41
17525;BME280;40431;52.198;9.902;2022-07-18T11:32:46;101301.34;;;30.42;29.30
17525;BME280;40431;52.198;9.902;2022-07-18T11:35:14;101296.00;;;30.47;29.23
17525;BME280;40431;52.198;9.902;2022-07-18T11:37:46;101301.22;;;30.57;29.60
17525;BME280;40431;52.198;9.902;2022-07-18T11:40:14;101300.56;;;30.62;29.48
17525;BME280;40431;52.198;9.902;2022-07-18T11:42:41;101310.50;;;30.64;29.56
17525;BME280;40431;52.198;9.902;2022-07-18T11:45:10;101300.41;;;30.70;28.89
17525;BME280;40431;52.198;9.902;2022-07-18T11:47:38;101291.16;;;30.76;29.81
17525;BME280;40431;52.198;9.902;2022-07-18T11:50:06;101292.72;;;30.92;29.55
17525;BME280;40431;52.198;9.902;2022-07-18T11:52:34;101291.06;;;31.05;29.25
17525;BME280;40431;52.198;9.902;2022-07-18T11:55:00;101285.47;;;31.11;28.40
17525;BME280;40431;52.198;9.902;2022-07-18T11:57:31;101285.50;;;31.25;29.24
17525;BME280;40431;52.198;9.902;2022-07-18T11:59:58;101287.44;;;31.38;29.48
17525;BME280;40431;52.198;9.902;2022-07-18T12:02:25;101284.22;;;31.47;28.72
17525;BME280;40431;52.198;9.902;2022-07-18T12:04:51;101275.38;;;31.51;28.41
17525;BME280;40431;52.198;9.902;2022-07-18T12:07:19;101272.81;;;31.62;28.84
17525;BME280;40431;52.198;9.902;2022-07-18T12:09:47;101262.44;;;31.76;29.51
17525;BME280;40431;52.198;9.902;2022-07-18T12:12:15;101274.09;;;31.87;28.18
17525;BME280;40431;52.198;9.902;2022-07-18T12:14:43;101264.34;;;31.96;27.85
17525;BME280;40431;52.198;9.902;2022-07-18T12:17:18;101254.44;;;31.93;27.33
17525;BME280;40431;52.198;9.902;2022-07-18T12:19:44;101263.28;;;31.97;28.48
17525;BME280;40431;52.198;9.902;2022-07-18T12:22:12;101270.66;;;31.85;27.39
17525;BME280;40431;52.198;9.902;2022-07-18T12:24:40;101259.88;;;31.75;27.87
17525;BME280;40431;52.198;9.902;2022-07-18T12:27:15;101267.63;;;31.53;28.20
17525;BME280;40431;52.198;9.902;2022-07-18T12:30:17;101265.06;;;31.64;28.74
17525;BME280;40431;52.198;9.902;2022-07-18T12:32:46;101268.50;;;31.67;27.60
17525;BME280;40431;52.198;9.902;2022-07-18T12:35:15;101263.56;;;31.62;28.89
17525;BME280;40431;52.198;9.902;2022-07-18T12:37:51;101264.84;;;31.73;28.63
17525;BME280;40431;52.198;9.902;2022-07-18T12:40:18;101259.88;;;31.75;28.27
17525;BME280;40431;52.198;9.902;2022-07-18T12:42:46;101254.47;;;31.73;28.86
17525;BME280;40431;52.198;9.902;2022-07-18T12:45:13;101262.44;;;31.70;28.82
17525;BME280;40431;52.198;9.902;2022-07-18T12:47:40;101262.44;;;31.90;29.09
17525;BME280;40431;52.198;9.902;2022-07-18T12:50:07;101255.50;;;32.12;28.60
17525;BME280;40431;52.198;9.902;2022-07-18T12:52:34;101237.97;;;32.30;28.42
17525;BME280;40431;52.198;9.902;2022-07-18T12:55:00;101236.81;;;32.45;27.17
17525;BME280;40431;52.198;9.902;2022-07-18T12:57:26;101241.59;;;32.44;27.70